KDRO/DRO METAR and TAF weather

Enter ICAO airport designator
Station Type Date Time Source
KDRO METAR 2022/08/13 11:53 UTC NOAA

KDRO 131153Z AUTO 02003KT 10SM CLR 14/09 A3036 RMK AO2 SLP187 T01440089 10200 20133 55000


Station Type Date Time Source
KDRO Decoded METAR 2022/08/13 11:53 UTC NOAA

DURANGO-LA PLATA COUNTY AIRPORT , CO, United States (KDRO) 37-09N 107-46W 2035M
Aug 13, 2022 - 07:53 AM EDT / 2022.08.13 1153 UTC
Wind: from the NNE (020 degrees) at 3 MPH (3 KT):0
Visibility: 10 mile(s):0
Sky conditions: clear
Temperature: 57.9 F (14.4 C)
Dew Point: 48.0 F (8.9 C)
Relative Humidity: 69%
Pressure (altimeter): 30.36 in. Hg (1028 hPa)
Pressure tendency: 0.00 inches (0.0 hPa) lower than three hours ago
ob: KDRO 131153Z AUTO 02003KT 10SM CLR 14/09 A3036 RMK AO2 SLP187 T01440089 10200 20133 55000
cycle: 12

Station Type Date Time Source
KDRO TAF 2022/08/13 12:24 UTC NOAA

TAF KDRO 131122Z 1312/1412 VRB04KT P6SM SKC
FM131800 19007KT P6SM FEW100
FM132000 22009KT P6SM FEW100
FM140200 04009KT P6SM SCT100
FM140600 VRB04KT P6SM FEW100

Example: see airport list